sensor_id;sensor_type;location;lat;lon;timestamp;temperature;humidity
37285;DHT22;23172;53.550;9.964;2023-02-08T00:04:16;1.70;93.70
37285;DHT22;23172;53.550;9.964;2023-02-08T00:09:18;1.70;94.00
37285;DHT22;23172;53.550;9.964;2023-02-08T00:14:21;1.70;93.60
37285;DHT22;23172;53.550;9.964;2023-02-08T00:19:23;1.60;93.90
37285;DHT22;23172;53.550;9.964;2023-02-08T00:24:25;1.60;93.60
37285;DHT22;23172;53.550;9.964;2023-02-08T00:29:28;1.60;93.50
37285;DHT22;23172;53.550;9.964;2023-02-08T00:34:30;1.60;93.50
37285;DHT22;23172;53.550;9.964;2023-02-08T00:39:32;1.60;93.50
37285;DHT22;23172;53.550;9.964;2023-02-08T00:44:35;1.50;93.80
37285;DHT22;23172;53.550;9.964;2023-02-08T00:49:37;1.50;93.60
37285;DHT22;23172;53.550;9.964;2023-02-08T00:54:39;1.40;93.60
37285;DHT22;23172;53.550;9.964;2023-02-08T00:59:43;1.40;93.60
37285;DHT22;23172;53.550;9.964;2023-02-08T01:04:45;1.30;93.70
37285;DHT22;23172;53.550;9.964;2023-02-08T01:09:47;1.30;93.70
37285;DHT22;23172;53.550;9.964;2023-02-08T01:14:50;1.30;93.80
37285;DHT22;23172;53.550;9.964;2023-02-08T01:19:52;1.30;93.80
37285;DHT22;23172;53.550;9.964;2023-02-08T01:24:54;1.20;93.80
37285;DHT22;23172;53.550;9.964;2023-02-08T01:29:57;1.20;94.20
37285;DHT22;23172;53.550;9.964;2023-02-08T01:34:59;1.20;93.90
37285;DHT22;23172;53.550;9.964;2023-02-08T01:40:01;1.20;94.30
37285;DHT22;23172;53.550;9.964;2023-02-08T01:45:23;1.20;93.90
37285;DHT22;23172;53.550;9.964;2023-02-08T01:50:29;1.20;94.10
37285;DHT22;23172;53.550;9.964;2023-02-08T01:55:36;1.20;94.10
37285;DHT22;23172;53.550;9.964;2023-02-08T02:00:40;1.10;94.20
37285;DHT22;23172;53.550;9.964;2023-02-08T02:05:48;1.10;94.20
37285;DHT22;23172;53.550;9.964;2023-02-08T02:10:51;1.00;94.20
37285;DHT22;23172;53.550;9.964;2023-02-08T02:15:54;1.00;94.10
37285;DHT22;23172;53.550;9.964;2023-02-08T02:21:20;0.90;94.10
37285;DHT22;23172;53.550;9.964;2023-02-08T02:26:45;0.90;94.20
37285;DHT22;23172;53.550;9.964;2023-02-08T02:37:29;0.80;94.40
37285;DHT22;23172;53.550;9.964;2023-02-08T02:42:38;0.80;94.40
37285;DHT22;23172;53.550;9.964;2023-02-08T02:48:05;0.80;94.50
37285;DHT22;23172;53.550;9.964;2023-02-08T02:53:16;0.80;94.50
37285;DHT22;23172;53.550;9.964;2023-02-08T02:58:21;0.80;94.50
37285;DHT22;23172;53.550;9.964;2023-02-08T03:03:25;0.80;94.40
37285;DHT22;23172;53.550;9.964;2023-02-08T03:08:54;0.80;94.50
37285;DHT22;23172;53.550;9.964;2023-02-08T03:14:06;0.80;94.60
37285;DHT22;23172;53.550;9.964;2023-02-08T03:19:19;0.80;94.70
37285;DHT22;23172;53.550;9.964;2023-02-08T03:24:28;0.80;94.80
37285;DHT22;23172;53.550;9.964;2023-02-08T03:29:40;0.80;94.90
37285;DHT22;23172;53.550;9.964;2023-02-08T03:34:47;0.80;94.90
37285;DHT22;23172;53.550;9.964;2023-02-08T03:39:58;0.80;94.90
37285;DHT22;23172;53.550;9.964;2023-02-08T03:45:08;0.80;95.00
37285;DHT22;23172;53.550;9.964;2023-02-08T03:50:12;0.80;95.00
37285;DHT22;23172;53.550;9.964;2023-02-08T03:55:21;0.80;95.00
37285;DHT22;23172;53.550;9.964;2023-02-08T04:00:25;0.80;95.00
37285;DHT22;23172;53.550;9.964;2023-02-08T04:05:28;0.70;95.10
37285;DHT22;23172;53.550;9.964;2023-02-08T04:10:31;0.70;95.10
37285;DHT22;23172;53.550;9.964;2023-02-08T04:15:33;0.70;95.10
37285;DHT22;23172;53.550;9.964;2023-02-08T04:20:35;0.70;95.20
37285;DHT22;23172;53.550;9.964;2023-02-08T04:25:38;0.70;95.20
37285;DHT22;23172;53.550;9.964;2023-02-08T04:30:40;0.70;95.10
37285;DHT22;23172;53.550;9.964;2023-02-08T04:35:42;0.70;95.10
37285;DHT22;23172;53.550;9.964;2023-02-08T04:40:45;0.70;95.20
37285;DHT22;23172;53.550;9.964;2023-02-08T04:45:48;0.60;95.20
37285;DHT22;23172;53.550;9.964;2023-02-08T04:50:53;0.60;95.20
37285;DHT22;23172;53.550;9.964;2023-02-08T04:55:57;0.60;95.20
37285;DHT22;23172;53.550;9.964;2023-02-08T05:00:59;0.50;95.20
37285;DHT22;23172;53.550;9.964;2023-02-08T05:06:00;0.40;95.20
37285;DHT22;23172;53.550;9.964;2023-02-08T05:11:04;0.30;95.10
37285;DHT22;23172;53.550;9.964;2023-02-08T05:16:06;0.20;95.20
37285;DHT22;23172;53.550;9.964;2023-02-08T05:21:08;0.20;95.20
37285;DHT22;23172;53.550;9.964;2023-02-08T05:26:12;0.10;95.20
37285;DHT22;23172;53.550;9.964;2023-02-08T05:31:16;0.10;95.20
37285;DHT22;23172;53.550;9.964;2023-02-08T05:36:21;0.00;95.20
37285;DHT22;23172;53.550;9.964;2023-02-08T05:41:25;0.00;95.20
37285;DHT22;23172;53.550;9.964;2023-02-08T05:46:27;-0.10;95.20
37285;DHT22;23172;53.550;9.964;2023-02-08T05:51:28;-0.20;95.20
37285;DHT22;23172;53.550;9.964;2023-02-08T05:56:32;-0.30;95.30
37285;DHT22;23172;53.550;9.964;2023-02-08T06:01:34;-0.30;95.40
37285;DHT22;23172;53.550;9.964;2023-02-08T06:06:36;-0.30;95.40
37285;DHT22;23172;53.550;9.964;2023-02-08T06:11:39;-0.40;95.50
37285;DHT22;23172;53.550;9.964;2023-02-08T06:16:41;-0.40;95.70
37285;DHT22;23172;53.550;9.964;2023-02-08T06:21:43;-0.40;95.70
37285;DHT22;23172;53.550;9.964;2023-02-08T06:26:46;-0.40;95.70
37285;DHT22;23172;53.550;9.964;2023-02-08T06:31:48;-0.40;95.80
37285;DHT22;23172;53.550;9.964;2023-02-08T06:36:49;-0.40;95.90
37285;DHT22;23172;53.550;9.964;2023-02-08T06:41:53;-0.50;95.90
37285;DHT22;23172;53.550;9.964;2023-02-08T06:46:54;-0.50;95.90
37285;DHT22;23172;53.550;9.964;2023-02-08T06:51:56;-0.50;95.90
37285;DHT22;23172;53.550;9.964;2023-02-08T06:56:59;-0.50;95.90
37285;DHT22;23172;53.550;9.964;2023-02-08T07:02:01;-0.50;96.00
37285;DHT22;23172;53.550;9.964;2023-02-08T07:07:04;-0.50;96.00
37285;DHT22;23172;53.550;9.964;2023-02-08T07:12:08;-0.50;96.00
37285;DHT22;23172;53.550;9.964;2023-02-08T07:17:10;-0.60;96.00
37285;DHT22;23172;53.550;9.964;2023-02-08T07:22:12;-0.60;96.00
37285;DHT22;23172;53.550;9.964;2023-02-08T07:27:15;-0.60;95.90
37285;DHT22;23172;53.550;9.964;2023-02-08T07:32:17;-0.50;95.90
37285;DHT22;23172;53.550;9.964;2023-02-08T07:37:19;-0.50;95.90
37285;DHT22;23172;53.550;9.964;2023-02-08T07:42:22;-0.50;96.00
37285;DHT22;23172;53.550;9.964;2023-02-08T07:47:24;-0.50;96.00
37285;DHT22;23172;53.550;9.964;2023-02-08T07:52:26;-0.40;95.90
37285;DHT22;23172;53.550;9.964;2023-02-08T07:57:30;-0.40;95.90
37285;DHT22;23172;53.550;9.964;2023-02-08T08:02:32;-0.40;95.90
37285;DHT22;23172;53.550;9.964;2023-02-08T08:07:34;-0.30;95.80
37285;DHT22;23172;53.550;9.964;2023-02-08T08:12:38;-0.30;95.80
37285;DHT22;23172;53.550;9.964;2023-02-08T08:17:40;-0.30;95.80
37285;DHT22;23172;53.550;9.964;2023-02-08T08:22:41;-0.20;95.70
37285;DHT22;23172;53.550;9.964;2023-02-08T08:27:45;-0.20;95.70
37285;DHT22;23172;53.550;9.964;2023-02-08T08:32:47;-0.20;96.10
37285;DHT22;23172;53.550;9.964;2023-02-08T08:37:48;-0.10;96.00
37285;DHT22;23172;53.550;9.964;2023-02-08T08:42:52;-0.10;95.60
37285;DHT22;23172;53.550;9.964;2023-02-08T08:47:54;0.00;95.60
37285;DHT22;23172;53.550;9.964;2023-02-08T08:52:56;0.10;95.50
37285;DHT22;23172;53.550;9.964;2023-02-08T08:57:59;0.10;95.40
37285;DHT22;23172;53.550;9.964;2023-02-08T09:03:01;0.20;95.30
37285;DHT22;23172;53.550;9.964;2023-02-08T09:08:03;0.30;95.10
37285;DHT22;23172;53.550;9.964;2023-02-08T09:13:07;0.40;95.10
37285;DHT22;23172;53.550;9.964;2023-02-08T09:18:09;0.40;95.10
37285;DHT22;23172;53.550;9.964;2023-02-08T09:23:11;0.50;95.00
37285;DHT22;23172;53.550;9.964;2023-02-08T09:28:15;0.60;94.90
37285;DHT22;23172;53.550;9.964;2023-02-08T09:33:17;0.70;94.80
37285;DHT22;23172;53.550;9.964;2023-02-08T09:38:19;0.70;94.70
37285;DHT22;23172;53.550;9.964;2023-02-08T09:43:30;0.80;94.60
37285;DHT22;23172;53.550;9.964;2023-02-08T09:48:37;0.90;94.60
37285;DHT22;23172;53.550;9.964;2023-02-08T09:53:43;1.00;94.50
37285;DHT22;23172;53.550;9.964;2023-02-08T09:58:49;1.10;94.40
37285;DHT22;23172;53.550;9.964;2023-02-08T10:03:55;1.20;94.40
37285;DHT22;23172;53.550;9.964;2023-02-08T10:09:02;1.30;94.40
37285;DHT22;23172;53.550;9.964;2023-02-08T10:14:36;1.50;94.20
37285;DHT22;23172;53.550;9.964;2023-02-08T10:19:52;1.60;94.10
37285;DHT22;23172;53.550;9.964;2023-02-08T10:25:10;1.70;93.90
37285;DHT22;23172;53.550;9.964;2023-02-08T10:30:26;1.80;93.70
37285;DHT22;23172;53.550;9.964;2023-02-08T10:35:31;1.90;93.60
37285;DHT22;23172;53.550;9.964;2023-02-08T10:40:38;2.00;93.90
37285;DHT22;23172;53.550;9.964;2023-02-08T10:45:47;2.10;93.20
37285;DHT22;23172;53.550;9.964;2023-02-08T10:50:50;2.20;93.10
37285;DHT22;23172;53.550;9.964;2023-02-08T10:55:52;2.20;92.90
37285;DHT22;23172;53.550;9.964;2023-02-08T11:00:55;2.30;93.30
37285;DHT22;23172;53.550;9.964;2023-02-08T11:05:59;2.40;92.60
37285;DHT22;23172;53.550;9.964;2023-02-08T11:11:04;2.50;92.60
37285;DHT22;23172;53.550;9.964;2023-02-08T11:16:10;2.60;92.30
37285;DHT22;23172;53.550;9.964;2023-02-08T11:21:21;2.60;92.50
37285;DHT22;23172;53.550;9.964;2023-02-08T11:26:31;2.70;92.00
37285;DHT22;23172;53.550;9.964;2023-02-08T11:31:34;2.80;91.70
37285;DHT22;23172;53.550;9.964;2023-02-08T11:36:42;2.80;91.70
37285;DHT22;23172;53.550;9.964;2023-02-08T11:41:47;2.90;91.50
37285;DHT22;23172;53.550;9.964;2023-02-08T11:46:51;3.00;91.50
37285;DHT22;23172;53.550;9.964;2023-02-08T11:51:54;3.10;91.30
37285;DHT22;23172;53.550;9.964;2023-02-08T11:57:01;3.20;91.10
37285;DHT22;23172;53.550;9.964;2023-02-08T12:02:27;3.30;90.80
37285;DHT22;23172;53.550;9.964;2023-02-08T12:07:43;3.40;90.30
37285;DHT22;23172;53.550;9.964;2023-02-08T12:18:27;3.50;89.20
37285;DHT22;23172;53.550;9.964;2023-02-08T12:23:46;3.60;88.20
37285;DHT22;23172;53.550;9.964;2023-02-08T12:29:04;3.70;88.20
37285;DHT22;23172;53.550;9.964;2023-02-08T12:34:14;3.80;86.80
37285;DHT22;23172;53.550;9.964;2023-02-08T12:39:30;3.90;85.90
37285;DHT22;23172;53.550;9.964;2023-02-08T12:50:33;4.00;83.20
37285;DHT22;23172;53.550;9.964;2023-02-08T12:55:38;4.10;82.80
37285;DHT22;23172;53.550;9.964;2023-02-08T13:00:42;4.20;81.60
37285;DHT22;23172;53.550;9.964;2023-02-08T13:05:48;4.30;81.30
37285;DHT22;23172;53.550;9.964;2023-02-08T13:10:54;4.30;80.10
37285;DHT22;23172;53.550;9.964;2023-02-08T13:16:00;4.40;79.50
37285;DHT22;23172;53.550;9.964;2023-02-08T13:21:11;4.40;79.20
37285;DHT22;23172;53.550;9.964;2023-02-08T13:26:16;4.50;78.50
37285;DHT22;23172;53.550;9.964;2023-02-08T13:31:22;4.60;77.70
37285;DHT22;23172;53.550;9.964;2023-02-08T13:36:28;4.60;77.00
37285;DHT22;23172;53.550;9.964;2023-02-08T13:41:31;4.70;76.00
37285;DHT22;23172;53.550;9.964;2023-02-08T13:46:36;4.80;74.90
37285;DHT22;23172;53.550;9.964;2023-02-08T13:52:01;4.80;73.90
37285;DHT22;23172;53.550;9.964;2023-02-08T14:02:28;5.00;71.90
37285;DHT22;23172;53.550;9.964;2023-02-08T14:07:41;5.10;70.20
37285;DHT22;23172;53.550;9.964;2023-02-08T14:12:49;5.10;69.20
37285;DHT22;23172;53.550;9.964;2023-02-08T14:17:56;5.20;68.10
37285;DHT22;23172;53.550;9.964;2023-02-08T14:23:02;5.30;68.10
37285;DHT22;23172;53.550;9.964;2023-02-08T14:28:05;5.30;67.10
37285;DHT22;23172;53.550;9.964;2023-02-08T14:33:11;5.30;66.90
37285;DHT22;23172;53.550;9.964;2023-02-08T14:43:54;5.40;65.80
37285;DHT22;23172;53.550;9.964;2023-02-08T14:48:57;5.40;66.30
37285;DHT22;23172;53.550;9.964;2023-02-08T14:54:02;5.40;66.40
37285;DHT22;23172;53.550;9.964;2023-02-08T14:59:12;5.40;67.20
37285;DHT22;23172;53.550;9.964;2023-02-08T15:04:15;5.40;67.20
37285;DHT22;23172;53.550;9.964;2023-02-08T15:09:20;5.40;67.50
37285;DHT22;23172;53.550;9.964;2023-02-08T15:14:25;5.40;68.00
37285;DHT22;23172;53.550;9.964;2023-02-08T15:19:29;5.40;68.30
37285;DHT22;23172;53.550;9.964;2023-02-08T15:24:31;5.30;68.60
37285;DHT22;23172;53.550;9.964;2023-02-08T15:29:40;5.30;68.90
37285;DHT22;23172;53.550;9.964;2023-02-08T15:34:47;5.20;68.70
37285;DHT22;23172;53.550;9.964;2023-02-08T15:39:52;5.20;69.20
37285;DHT22;23172;53.550;9.964;2023-02-08T15:44:56;5.10;69.50
37285;DHT22;23172;53.550;9.964;2023-02-08T15:50:00;5.10;70.00
37285;DHT22;23172;53.550;9.964;2023-02-08T15:55:05;5.10;70.60
37285;DHT22;23172;53.550;9.964;2023-02-08T16:00:14;5.00;71.10
37285;DHT22;23172;53.550;9.964;2023-02-08T16:05:19;5.00;71.70
37285;DHT22;23172;53.550;9.964;2023-02-08T16:10:24;4.90;72.10
37285;DHT22;23172;53.550;9.964;2023-02-08T16:15:40;4.80;73.40
37285;DHT22;23172;53.550;9.964;2023-02-08T16:20:42;4.80;73.00
37285;DHT22;23172;53.550;9.964;2023-02-08T16:25:44;4.70;73.30
37285;DHT22;23172;53.550;9.964;2023-02-08T16:30:50;4.70;73.60
37285;DHT22;23172;53.550;9.964;2023-02-08T16:35:54;4.60;74.00
37285;DHT22;23172;53.550;9.964;2023-02-08T16:41:02;4.60;74.20
37285;DHT22;23172;53.550;9.964;2023-02-08T16:46:21;4.50;74.30
37285;DHT22;23172;53.550;9.964;2023-02-08T16:51:26;4.50;75.00
37285;DHT22;23172;53.550;9.964;2023-02-08T16:56:28;4.40;75.60
37285;DHT22;23172;53.550;9.964;2023-02-08T17:01:33;4.40;76.40
37285;DHT22;23172;53.550;9.964;2023-02-08T17:06:45;4.30;76.90
37285;DHT22;23172;53.550;9.964;2023-02-08T17:11:47;4.30;77.50
37285;DHT22;23172;53.550;9.964;2023-02-08T17:16:50;4.20;78.00
37285;DHT22;23172;53.550;9.964;2023-02-08T17:21:52;4.20;78.60
37285;DHT22;23172;53.550;9.964;2023-02-08T17:26:54;4.10;79.40
37285;DHT22;23172;53.550;9.964;2023-02-08T17:31:57;4.10;79.80
37285;DHT22;23172;53.550;9.964;2023-02-08T17:36:59;4.00;80.30
37285;DHT22;23172;53.550;9.964;2023-02-08T17:42:00;4.00;80.50
37285;DHT22;23172;53.550;9.964;2023-02-08T17:47:04;4.00;81.00
37285;DHT22;23172;53.550;9.964;2023-02-08T17:52:06;3.90;81.10
37285;DHT22;23172;53.550;9.964;2023-02-08T17:57:07;3.90;81.50
37285;DHT22;23172;53.550;9.964;2023-02-08T18:02:12;3.80;81.80
37285;DHT22;23172;53.550;9.964;2023-02-08T18:07:14;3.70;82.50
37285;DHT22;23172;53.550;9.964;2023-02-08T18:12:16;3.60;82.90
37285;DHT22;23172;53.550;9.964;2023-02-08T18:17:19;3.60;83.40
37285;DHT22;23172;53.550;9.964;2023-02-08T18:22:21;3.60;83.80
37285;DHT22;23172;53.550;9.964;2023-02-08T18:27:23;3.50;84.00
37285;DHT22;23172;53.550;9.964;2023-02-08T18:32:28;3.50;84.40
37285;DHT22;23172;53.550;9.964;2023-02-08T18:37:30;3.50;84.80
37285;DHT22;23172;53.550;9.964;2023-02-08T18:42:32;3.40;85.10
37285;DHT22;23172;53.550;9.964;2023-02-08T18:47:36;3.40;85.50
37285;DHT22;23172;53.550;9.964;2023-02-08T18:52:38;3.30;85.90
37285;DHT22;23172;53.550;9.964;2023-02-08T18:57:40;3.30;86.30
37285;DHT22;23172;53.550;9.964;2023-02-08T19:02:44;3.20;86.70
37285;DHT22;23172;53.550;9.964;2023-02-08T19:07:46;3.20;87.00
37285;DHT22;23172;53.550;9.964;2023-02-08T19:12:48;3.10;87.50
37285;DHT22;23172;53.550;9.964;2023-02-08T19:17:51;3.00;87.80
37285;DHT22;23172;53.550;9.964;2023-02-08T19:22:53;3.00;87.80
37285;DHT22;23172;53.550;9.964;2023-02-08T19:27:55;2.90;87.90
37285;DHT22;23172;53.550;9.964;2023-02-08T19:32:58;2.90;88.10
37285;DHT22;23172;53.550;9.964;2023-02-08T19:38:00;2.80;88.30
37285;DHT22;23172;53.550;9.964;2023-02-08T19:43:02;2.80;88.40
37285;DHT22;23172;53.550;9.964;2023-02-08T19:48:05;2.80;88.60
37285;DHT22;23172;53.550;9.964;2023-02-08T19:53:08;2.70;88.70
37285;DHT22;23172;53.550;9.964;2023-02-08T19:58:10;2.70;89.00
37285;DHT22;23172;53.550;9.964;2023-02-08T20:03:17;2.60;89.20
37285;DHT22;23172;53.550;9.964;2023-02-08T20:08:19;2.60;89.60
37285;DHT22;23172;53.550;9.964;2023-02-08T20:13:23;2.50;89.90
37285;DHT22;23172;53.550;9.964;2023-02-08T20:18:26;2.50;90.00
37285;DHT22;23172;53.550;9.964;2023-02-08T20:23:29;2.40;90.00
37285;DHT22;23172;53.550;9.964;2023-02-08T20:28:31;2.40;90.10
37285;DHT22;23172;53.550;9.964;2023-02-08T20:33:34;2.30;90.20
37285;DHT22;23172;53.550;9.964;2023-02-08T20:38:36;2.30;90.40
37285;DHT22;23172;53.550;9.964;2023-02-08T20:43:38;2.30;90.70
37285;DHT22;23172;53.550;9.964;2023-02-08T20:48:42;2.20;90.40
37285;DHT22;23172;53.550;9.964;2023-02-08T20:53:45;2.20;90.60
37285;DHT22;23172;53.550;9.964;2023-02-08T20:58:47;2.10;90.60
37285;DHT22;23172;53.550;9.964;2023-02-08T21:03:51;2.00;90.60
37285;DHT22;23172;53.550;9.964;2023-02-08T21:08:53;2.00;90.70
37285;DHT22;23172;53.550;9.964;2023-02-08T21:13:56;2.00;90.80
37285;DHT22;23172;53.550;9.964;2023-02-08T21:18:59;1.90;90.80
37285;DHT22;23172;53.550;9.964;2023-02-08T21:24:01;1.90;90.80
37285;DHT22;23172;53.550;9.964;2023-02-08T21:29:03;1.90;90.80
37285;DHT22;23172;53.550;9.964;2023-02-08T21:34:07;1.90;90.90
37285;DHT22;23172;53.550;9.964;2023-02-08T21:39:09;1.80;90.90
37285;DHT22;23172;53.550;9.964;2023-02-08T21:44:11;1.80;90.90
37285;DHT22;23172;53.550;9.964;2023-02-08T21:49:14;1.80;91.00
37285;DHT22;23172;53.550;9.964;2023-02-08T21:54:33;1.80;91.00
37285;DHT22;23172;53.550;9.964;2023-02-08T21:59:55;1.70;91.10
37285;DHT22;23172;53.550;9.964;2023-02-08T22:05:00;1.70;91.10
37285;DHT22;23172;53.550;9.964;2023-02-08T22:10:05;1.60;91.10
37285;DHT22;23172;53.550;9.964;2023-02-08T22:15:08;1.50;91.10
37285;DHT22;23172;53.550;9.964;2023-02-08T22:20:13;1.50;91.20
37285;DHT22;23172;53.550;9.964;2023-02-08T22:25:16;1.50;91.30
37285;DHT22;23172;53.550;9.964;2023-02-08T22:30:18;1.40;91.30
37285;DHT22;23172;53.550;9.964;2023-02-08T22:35:22;1.40;91.40
37285;DHT22;23172;53.550;9.964;2023-02-08T22:40:24;1.40;91.50
37285;DHT22;23172;53.550;9.964;2023-02-08T22:45:25;1.40;91.50
37285;DHT22;23172;53.550;9.964;2023-02-08T22:50:29;1.40;91.50
37285;DHT22;23172;53.550;9.964;2023-02-08T22:55:31;1.30;91.50
37285;DHT22;23172;53.550;9.964;2023-02-08T23:00:32;1.30;91.50
37285;DHT22;23172;53.550;9.964;2023-02-08T23:05:39;1.30;91.60
37285;DHT22;23172;53.550;9.964;2023-02-08T23:10:41;1.20;91.70
37285;DHT22;23172;53.550;9.964;2023-02-08T23:15:43;1.20;91.70
37285;DHT22;23172;53.550;9.964;2023-02-08T23:20:47;1.20;91.80
37285;DHT22;23172;53.550;9.964;2023-02-08T23:25:48;1.20;91.80
37285;DHT22;23172;53.550;9.964;2023-02-08T23:30:50;1.20;91.80
37285;DHT22;23172;53.550;9.964;2023-02-08T23:35:56;1.20;91.90
37285;DHT22;23172;53.550;9.964;2023-02-08T23:41:01;1.10;91.90
37285;DHT22;23172;53.550;9.964;2023-02-08T23:46:07;1.10;92.00
37285;DHT22;23172;53.550;9.964;2023-02-08T23:51:10;1.10;92.10
37285;DHT22;23172;53.550;9.964;2023-02-08T23:56:15;1.10;92.10
